Time;durP1;ratioP1;P1;durP2;ratioP2;P2;SDS_P1;SDS_P2;PMS_P1;PMS_P2;Temp;Humidity;BMP_temperature;BMP_pressure;BME280_temperature;BME280_humidity;BME280_pressure;Samples;Min_cycle;Max_cycle;Signal;HPM_P1;HPM_P2
2023/10/07 00:00:48;;;;;;;7.77;3.50;;;;;;;8.67;89.51;148328.09;4941946;28;20283;-56
2023/10/07 00:03:18;;;;;;;10.97;4.13;;;;;;;8.51;93.80;148289.56;4942364;28;20609;-57
2023/10/07 00:05:47;;;;;;;11.40;3.93;;;;;;;8.41;94.17;148265.91;4945831;28;20239;-58
2023/10/07 00:08:19;;;;;;;10.27;4.10;;;;;;;8.37;93.55;148254.69;4944234;28;20290;-58
2023/10/07 00:10:48;;;;;;;10.70;4.50;;;;;;;8.43;91.69;148269.63;4946126;28;20221;-58
2023/10/07 00:13:19;;;;;;;11.50;3.70;;;;;;;8.63;91.51;148316.94;4941772;28;20233;-58
2023/10/07 00:15:47;;;;;;;8.87;3.97;;;;;;;8.53;88.47;148293.28;4949111;28;20711;-60
2023/10/07 00:18:16;;;;;;;9.80;3.90;;;;;;;8.50;89.51;148285.81;4943833;28;23926;-57
2023/10/07 00:20:47;;;;;;;8.90;3.73;;;;;;;8.40;90.65;148262.16;4948141;28;20264;-57
2023/10/07 00:23:20;;;;;;;7.80;3.70;;;;;;;8.37;91.74;148254.69;4940372;28;20244;-57
2023/10/07 00:25:49;;;;;;;10.23;3.60;;;;;;;8.27;92.32;148231.09;4948679;28;20221;-58
2023/10/07 00:28:19;;;;;;;11.53;4.73;;;;;;;8.22;93.39;148218.66;4944500;28;20229;-59
2023/10/07 00:30:49;;;;;;;10.33;4.03;;;;;;;8.38;93.46;148258.44;4964124;28;20605;-58
2023/10/07 00:33:20;;;;;;;10.77;4.27;;;;;;;8.31;93.58;148241.03;4939803;28;20237;-57
2023/10/07 00:35:49;;;;;;;10.07;4.00;;;;;;;8.31;94.33;148241.03;4947847;28;20254;-58
2023/10/07 00:38:21;;;;;;;9.77;4.00;;;;;;;8.24;93.63;148224.84;4943605;28;20241;-58
2023/10/07 00:40:52;;;;;;;10.93;3.97;;;;;;;8.21;92.03;148217.38;4946703;28;20220;-58
2023/10/07 00:43:26;;;;;;;8.73;3.80;;;;;;;8.21;91.93;148217.38;4936204;28;20239;-58
2023/10/07 00:45:59;;;;;;;10.70;4.30;;;;;;;8.37;92.83;148255.97;4938200;28;20217;-58
2023/10/07 00:48:38;;;;;;;10.20;4.17;;;;;;;8.41;94.04;148264.63;4938379;28;20573;-58
2023/10/07 00:51:11;;;;;;;8.30;3.60;;;;;;;8.30;92.52;148238.53;4947074;28;20601;-55
2023/10/07 00:53:45;;;;;;;12.70;4.40;;;;;;;8.23;92.43;148221.13;4939953;28;20243;-55
2023/10/07 00:56:13;;;;;;;13.47;4.23;;;;;;;8.23;92.85;148221.13;4944173;28;20236;-55
2023/10/07 00:58:45;;;;;;;12.47;4.33;;;;;;;8.24;93.04;148224.84;4936170;29;20260;-56
2023/10/07 01:01:12;;;;;;;11.70;4.47;;;;;;;8.13;93.87;148197.47;4941246;28;20224;-57
2023/10/07 01:03:48;;;;;;;10.17;4.13;;;;;;;8.15;93.17;148201.22;4943616;28;20229;-57
2023/10/07 01:06:25;;;;;;;11.33;4.57;;;;;;;8.05;94.19;148177.59;4941209;28;20241;-56
2023/10/07 01:08:58;;;;;;;12.23;3.70;;;;;;;8.02;95.61;148170.13;4943048;29;20595;-57
2023/10/07 01:11:29;;;;;;;12.20;4.40;;;;;;;8.00;96.23;148166.41;4930680;28;20230;-55
2023/10/07 01:13:57;;;;;;;11.00;3.90;;;;;;;8.12;96.48;148195.00;4940454;28;20217;-57
2023/10/07 01:16:40;;;;;;;10.57;4.10;;;;;;;8.05;96.49;148177.59;4945444;28;20266;-57
2023/10/07 01:19:19;;;;;;;13.90;4.13;;;;;;;8.08;96.16;148185.03;4942772;28;20243;-56
2023/10/07 01:21:50;;;;;;;10.77;4.50;;;;;;;7.98;95.43;148162.66;4945740;28;20697;-57
2023/10/07 01:24:33;;;;;;;11.67;4.20;;;;;;;7.95;97.30;148153.97;4931887;28;20252;-55
2023/10/07 01:27:05;;;;;;;10.73;4.07;;;;;;;8.11;95.63;148193.78;4942924;28;20219;-57
2023/10/07 01:29:34;;;;;;;11.60;4.67;;;;;;;8.16;96.60;148204.94;4934273;29;20233;-57
2023/10/07 01:32:04;;;;;;;9.27;4.27;;;;;;;8.04;97.18;148176.38;4941641;28;20233;-57
2023/10/07 01:34:35;;;;;;;12.57;4.23;;;;;;;8.12;94.21;148196.25;4943848;29;20216;-57
2023/10/07 01:37:02;;;;;;;9.37;4.07;;;;;;;8.10;95.30;148190.03;4942854;28;20261;-57
2023/10/07 01:39:31;;;;;;;9.73;4.60;;;;;;;8.15;96.41;148202.47;4946934;28;20228;-55
2023/10/07 01:42:01;;;;;;;8.33;3.80;;;;;;;8.02;96.85;148171.41;4943830;28;20850;-57
2023/10/07 01:44:31;;;;;;;15.77;4.97;;;;;;;7.98;97.46;148162.66;4940002;29;20229;-57
2023/10/07 01:46:58;;;;;;;11.57;4.40;;;;;;;7.97;97.04;148158.97;4960746;28;20228;-60
2023/10/07 01:49:29;;;;;;;10.37;4.30;;;;;;;8.00;98.41;148166.41;4947260;29;20228;-58
2023/10/07 01:51:56;;;;;;;10.90;4.60;;;;;;;7.97;99.79;148160.19;4946790;28;20287;-57
2023/10/07 01:54:28;;;;;;;12.97;3.90;;;;;;;7.93;99.02;148149.00;4949355;28;20592;-56
2023/10/07 01:56:56;;;;;;;12.27;4.80;;;;;;;7.87;98.66;148135.34;4948161;28;20240;-58
2023/10/07 01:59:23;;;;;;;10.57;4.50;;;;;;;7.92;98.54;148147.78;4947424;29;20680;-57
2023/10/07 02:01:58;;;;;;;13.53;4.37;;;;;;;7.83;98.98;148126.63;4949258;28;20614;-58
2023/10/07 02:04:26;;;;;;;10.63;3.97;;;;;;;7.96;100.00;148157.69;4946016;28;20580;-57
2023/10/07 02:06:54;;;;;;;12.43;5.10;;;;;;;7.87;99.91;148134.09;4949574;28;20232;-57
2023/10/07 02:09:25;;;;;;;9.57;3.93;;;;;;;7.88;100.00;148136.56;4946606;28;20704;-58
2023/10/07 02:11:53;;;;;;;10.63;4.60;;;;;;;7.86;100.00;148131.59;4949285;28;20241;-56
2023/10/07 02:14:24;;;;;;;11.33;4.10;;;;;;;7.98;100.00;148161.44;4944760;28;20665;-58
2023/10/07 02:16:52;;;;;;;11.00;4.40;;;;;;;7.91;100.00;148144.03;4947696;28;20266;-56
2023/10/07 02:19:28;;;;;;;12.23;4.57;;;;;;;7.91;100.00;148145.31;4946234;28;20229;-55
2023/10/07 02:21:59;;;;;;;12.17;4.20;;;;;;;7.87;100.00;148134.09;4945826;28;20305;-57
2023/10/07 02:24:30;;;;;;;10.67;4.57;;;;;;;7.88;100.00;148136.56;4947651;28;20235;-58
2023/10/07 02:27:03;;;;;;;8.60;4.00;;;;;;;7.96;100.00;148156.47;4959641;28;20226;-57
2023/10/07 02:29:31;;;;;;;11.40;4.17;;;;;;;7.96;99.98;148156.47;4948628;28;20299;-55
2023/10/07 02:32:11;;;;;;;10.93;4.00;;;;;;;7.85;99.74;148130.38;4943036;28;20545;-57
2023/10/07 02:34:51;;;;;;;11.17;3.83;;;;;;;7.80;100.00;148117.97;4946388;29;20304;-58
2023/10/07 02:37:18;;;;;;;8.57;4.27;;;;;;;7.87;100.00;148134.09;4945018;28;20232;-57
2023/10/07 02:39:48;;;;;;;11.63;4.53;;;;;;;7.78;100.00;148112.97;4961960;28;20221;-58
2023/10/07 02:42:21;;;;;;;13.13;4.23;;;;;;;7.72;100.00;148099.28;4944067;28;20243;-55
2023/10/07 02:44:54;;;;;;;12.77;4.77;;;;;;;7.72;100.00;148099.28;4936051;29;20255;-58
2023/10/07 02:47:21;;;;;;;10.03;4.90;;;;;;;7.78;100.00;148112.97;4935903;29;20224;-57
2023/10/07 02:49:50;;;;;;;12.93;4.87;;;;;;;7.68;100.00;148090.59;4939456;29;20620;-58
2023/10/07 02:52:20;;;;;;;12.67;5.17;;;;;;;7.63;100.00;148076.91;4943811;28;20255;-58
2023/10/07 02:55:11;;;;;;;11.60;5.03;;;;;;;7.58;100.00;148065.75;4946327;29;20318;-58
2023/10/07 02:57:39;;;;;;;13.03;5.27;;;;;;;7.45;100.00;148033.41;4936302;29;20237;-57
2023/10/07 03:00:16;;;;;;;13.13;4.73;;;;;;;7.34;100.00;148008.56;4943668;28;20294;-57
2023/10/07 03:02:49;;;;;;;11.63;4.63;;;;;;;7.14;100.00;147958.84;4947663;28;20229;-57
2023/10/07 03:05:29;;;;;;;12.07;5.40;;;;;;;7.05;100.00;147938.97;4942756;28;20230;-58
2023/10/07 03:08:06;;;;;;;12.37;5.17;;;;;;;6.92;100.00;147906.66;4935357;28;20688;-57
2023/10/07 03:10:43;;;;;;;13.73;5.67;;;;;;;6.94;100.00;147911.63;4948062;28;20228;-57
2023/10/07 03:13:09;;;;;;;11.77;5.03;;;;;;;6.90;100.00;147901.69;4943713;28;20238;-56
2023/10/07 03:15:45;;;;;;;12.47;4.80;;;;;;;6.79;100.00;147876.91;4946741;28;20230;-57
2023/10/07 03:18:30;;;;;;;11.33;5.10;;;;;;;6.75;100.00;147866.97;4934659;28;20251;-58
2023/10/07 03:21:06;;;;;;;12.37;4.83;;;;;;;6.75;100.00;147866.97;4943495;28;20226;-57
2023/10/07 03:23:37;;;;;;;10.37;4.70;;;;;;;6.74;100.00;147864.47;4945110;29;20218;-57
2023/10/07 03:26:06;;;;;;;12.00;4.87;;;;;;;6.82;100.00;147883.09;4944816;28;20564;-57
2023/10/07 03:28:36;;;;;;;12.73;4.83;;;;;;;6.79;100.00;147875.63;4947912;28;20718;-57
2023/10/07 03:31:10;;;;;;;12.40;4.97;;;;;;;6.77;100.00;147870.66;5144292;23;20602;-57
2023/10/07 03:33:45;;;;;;;12.83;4.93;;;;;;;6.87;100.00;147894.28;4957726;28;20229;-56
2023/10/07 03:36:30;;;;;;;10.60;4.47;;;;;;;6.97;100.00;147917.88;4955100;28;20230;-55
2023/10/07 03:39:09;;;;;;;11.60;4.10;;;;;;;6.96;100.00;147916.59;4957241;28;20264;-56
2023/10/07 03:41:37;;;;;;;12.17;4.97;;;;;;;6.92;100.00;147907.94;4958442;28;20241;-56
2023/10/07 03:44:03;;;;;;;13.50;4.43;;;;;;;6.98;100.00;147920.34;4947442;28;20699;-56
2023/10/07 03:46:34;;;;;;;12.87;4.47;;;;;;;6.91;100.00;147904.19;4950281;28;20226;-56
2023/10/07 03:49:01;;;;;;;11.30;4.37;;;;;;;6.91;100.00;147904.19;4943846;28;20331;-56
2023/10/07 03:51:30;;;;;;;12.43;4.63;;;;;;;7.18;100.00;147968.78;4954334;28;20227;-56
2023/10/07 03:54:00;;;;;;;11.67;4.40;;;;;;;7.19;100.00;147972.53;4940511;28;20535;-55
2023/10/07 03:56:27;;;;;;;16.97;4.57;;;;;;;7.16;100.00;147965.09;4947317;28;21157;-56
2023/10/07 03:58:55;;;;;;;13.83;4.77;;;;;;;7.26;100.00;147987.47;4952075;28;20320;-57
2023/10/07 04:01:26;;;;;;;9.80;4.60;;;;;;;7.19;100.00;147972.53;4945926;28;20782;-56
2023/10/07 04:03:59;;;;;;;10.90;4.87;;;;;;;7.14;100.00;147960.13;4949264;28;20224;-57
2023/10/07 04:06:30;;;;;;;10.37;4.57;;;;;;;7.18;100.00;147970.06;4947444;28;20316;-56
2023/10/07 04:09:05;;;;;;;10.43;4.50;;;;;;;7.14;100.00;147960.13;4948059;28;20226;-57
2023/10/07 04:11:33;;;;;;;10.53;4.07;;;;;;;7.15;100.00;147961.34;4949945;28;20416;-58
2023/10/07 04:14:07;;;;;;;11.07;4.53;;;;;;;7.14;100.00;147960.13;4950472;28;20751;-55
2023/10/07 04:16:34;;;;;;;15.27;5.20;;;;;;;7.31;100.00;147999.88;4943484;28;20212;-57
2023/10/07 04:19:16;;;;;;;11.53;5.03;;;;;;;7.26;100.00;147987.47;4944597;28;20242;-57
2023/10/07 04:21:43;;;;;;;12.17;4.87;;;;;;;7.55;100.00;148058.28;4946595;28;20314;-57
2023/10/07 04:24:10;;;;;;;12.93;4.77;;;;;;;7.47;100.00;148038.41;4946478;28;20234;-57
2023/10/07 04:26:39;;;;;;;13.00;5.63;;;;;;;7.48;100.00;148042.09;4947547;28;20238;-57
2023/10/07 04:29:08;;;;;;;11.57;4.87;;;;;;;7.50;100.00;148047.06;4945612;28;20230;-57
2023/10/07 04:31:37;;;;;;;11.20;4.53;;;;;;;7.61;100.00;148071.94;4944195;28;20230;-57
2023/10/07 04:34:11;;;;;;;13.00;4.87;;;;;;;7.55;100.00;148058.28;4936155;28;20239;-57
2023/10/07 04:37:01;;;;;;;10.13;4.50;;;;;;;7.48;100.00;148042.09;4947167;28;20229;-57
2023/10/07 04:39:28;;;;;;;12.07;5.53;;;;;;;7.87;100.00;148134.09;4949293;28;20333;-57
2023/10/07 04:41:56;;;;;;;10.30;4.43;;;;;;;7.64;100.00;148080.66;4947348;28;20243;-57
2023/10/07 04:45:00;;;;;;;13.70;5.23;;;;;;;7.62;100.00;148074.41;4947223;28;20294;-56
2023/10/07 04:47:29;;;;;;;12.23;4.53;;;;;;;7.80;100.00;148119.16;4947633;28;20239;-56
2023/10/07 04:49:59;;;;;;;14.57;4.77;;;;;;;7.83;100.00;148125.41;4943330;28;20599;-57
2023/10/07 04:52:30;;;;;;;11.50;4.90;;;;;;;7.71;100.00;148096.78;4950609;28;20254;-57
2023/10/07 04:54:58;;;;;;;10.57;4.50;;;;;;;7.72;100.00;148098.06;4945841;28;20239;-57
2023/10/07 04:57:42;;;;;;;8.70;4.43;;;;;;;7.64;100.00;148079.38;4952636;28;20639;-56
2023/10/07 05:00:26;;;;;;;11.80;4.87;;;;;;;7.63;100.00;148078.16;4943323;28;20343;-57
2023/10/07 05:02:53;;;;;;;9.70;5.00;;;;;;;7.50;100.00;148047.06;4948113;28;20275;-57
2023/10/07 05:05:25;;;;;;;12.10;5.17;;;;;;;7.49;100.00;148044.59;4946205;28;20219;-56
2023/10/07 05:07:52;;;;;;;10.40;4.90;;;;;;;7.48;100.00;148042.09;4951022;28;20220;-57
2023/10/07 05:10:28;;;;;;;9.40;4.50;;;;;;;7.56;100.00;148059.50;4948944;28;20230;-57
2023/10/07 05:12:55;;;;;;;12.43;4.53;;;;;;;7.50;100.00;148047.06;4942552;28;20702;-57
2023/10/07 05:15:25;;;;;;;11.00;4.80;;;;;;;7.44;100.00;148030.94;4960864;28;20233;-56
2023/10/07 05:17:52;;;;;;;13.80;4.93;;;;;;;7.35;100.00;148011.06;4947884;28;20234;-56
2023/10/07 05:20:28;;;;;;;14.07;4.67;;;;;;;7.32;100.00;148003.59;4948846;28;20235;-56
2023/10/07 05:22:54;;;;;;;9.40;4.53;;;;;;;7.34;100.00;148007.34;4950536;28;20242;-57
2023/10/07 05:25:23;;;;;;;10.17;4.83;;;;;;;7.27;100.00;147991.16;4942317;28;20323;-57
2023/10/07 05:27:51;;;;;;;11.40;5.03;;;;;;;7.21;100.00;147977.53;4932182;28;20231;-58
2023/10/07 05:30:23;;;;;;;10.03;4.67;;;;;;;7.19;100.00;147971.28;4942071;28;20748;-58
2023/10/07 05:32:49;;;;;;;11.17;4.43;;;;;;;7.19;100.00;147971.28;4951864;28;20231;-58
2023/10/07 05:35:43;;;;;;;12.70;4.47;;;;;;;7.36;100.00;148012.31;4943698;28;20223;-58
2023/10/07 05:38:10;;;;;;;15.43;4.73;;;;;;;7.37;100.00;148016.03;4945176;28;20242;-58
2023/10/07 05:40:37;;;;;;;12.77;4.53;;;;;;;7.34;100.00;148008.56;4954979;28;20219;-58
2023/10/07 05:43:06;;;;;;;12.47;5.03;;;;;;;7.33;100.00;148004.84;4950867;28;20707;-58
2023/10/07 05:45:34;;;;;;;8.83;4.23;;;;;;;7.32;100.00;148002.38;4948730;28;20232;-58
2023/10/07 05:48:00;;;;;;;9.17;5.03;;;;;;;7.35;100.00;148011.06;4943321;28;20220;-58
2023/10/07 05:50:28;;;;;;;10.37;4.60;;;;;;;7.44;100.00;148030.94;4939775;28;20655;-58
2023/10/07 05:52:56;;;;;;;12.67;4.23;;;;;;;7.54;100.00;148055.78;4946666;28;20239;-56
2023/10/07 05:55:23;;;;;;;13.77;4.83;;;;;;;7.73;100.00;148100.56;4945979;28;20231;-57
2023/10/07 05:57:52;;;;;;;12.60;4.73;;;;;;;7.68;100.00;148090.59;4944780;28;20238;-58
2023/10/07 06:00:25;;;;;;;12.37;4.87;;;;;;;7.86;100.00;148132.88;4942401;28;20231;-59
2023/10/07 06:02:53;;;;;;;8.87;4.40;;;;;;;7.81;100.00;148121.66;4951339;28;20231;-58
2023/10/07 06:05:27;;;;;;;12.73;4.87;;;;;;;7.89;100.00;148139.06;4942158;28;20315;-58
2023/10/07 06:07:54;;;;;;;13.60;4.73;;;;;;;7.91;100.00;148145.31;4945142;28;20224;-58
2023/10/07 06:10:24;;;;;;;10.87;4.13;;;;;;;7.88;100.00;148137.84;4941210;28;20858;-58
2023/10/07 06:12:53;;;;;;;11.17;5.17;;;;;;;7.93;100.00;148149.00;4944762;28;20735;-58
2023/10/07 06:15:24;;;;;;;12.50;4.60;;;;;;;7.93;100.00;148149.00;4945767;28;20224;-58
2023/10/07 06:17:51;;;;;;;15.57;5.43;;;;;;;8.09;100.00;148187.53;4942981;28;20282;-58
2023/10/07 06:20:26;;;;;;;11.43;5.00;;;;;;;8.34;100.00;148247.22;4942381;28;20232;-57
2023/10/07 06:22:56;;;;;;;17.67;4.87;;;;;;;8.40;100.00;148263.41;4949427;28;20318;-58
2023/10/07 06:25:30;;;;;;;13.73;4.77;;;;;;;8.52;100.00;148292.06;4945650;28;20676;-59
2023/10/07 06:27:59;;;;;;;12.23;5.10;;;;;;;8.51;100.00;148289.56;4941410;28;20219;-58
2023/10/07 06:30:27;;;;;;;11.63;4.90;;;;;;;8.59;100.00;148306.97;4951359;28;20288;-59
2023/10/07 06:32:56;;;;;;;10.13;4.37;;;;;;;8.62;100.00;148314.44;4948826;28;20279;-59
2023/10/07 06:35:24;;;;;;;10.67;4.50;;;;;;;8.67;100.00;148328.09;4946875;28;20741;-59
2023/10/07 06:37:52;;;;;;;11.53;4.43;;;;;;;8.63;100.00;148316.94;4954139;28;20226;-58
2023/10/07 06:40:28;;;;;;;12.83;4.50;;;;;;;8.65;100.00;148321.91;4946950;28;20239;-57
2023/10/07 06:42:58;;;;;;;12.57;4.90;;;;;;;8.67;100.00;148328.09;4954113;28;20223;-59
2023/10/07 06:45:29;;;;;;;9.27;4.67;;;;;;;8.67;100.00;148328.09;4952937;28;20233;-59
2023/10/07 06:47:59;;;;;;;10.93;4.60;;;;;;;8.69;100.00;148333.06;4951411;28;20804;-58
2023/10/07 06:50:27;;;;;;;8.90;4.10;;;;;;;8.69;100.00;148333.06;4950804;28;20224;-58
2023/10/07 06:52:55;;;;;;;8.33;4.60;;;;;;;8.73;100.00;148341.81;4955526;28;20829;-58
2023/10/07 06:55:24;;;;;;;9.17;4.90;;;;;;;8.75;100.00;148346.78;4954594;28;20227;-59
2023/10/07 06:57:56;;;;;;;6.93;3.87;;;;;;;8.79;100.00;148356.72;4946995;28;20248;-58
2023/10/07 07:00:24;;;;;;;13.70;4.77;;;;;;;8.83;100.00;148366.69;4949457;28;20236;-58
2023/10/07 07:02:57;;;;;;;9.43;4.27;;;;;;;8.87;100.00;148375.38;4950095;28;20805;-57
2023/10/07 07:05:25;;;;;;;9.87;4.57;;;;;;;8.98;100.00;148402.75;4948008;28;20731;-59
2023/10/07 07:07:53;;;;;;;10.43;4.30;;;;;;;9.07;100.00;148422.66;4946922;28;20230;-58
2023/10/07 07:10:27;;;;;;;9.07;4.57;;;;;;;9.11;100.00;148433.81;4945799;28;20230;-58
2023/10/07 07:13:03;;;;;;;10.10;4.33;;;;;;;9.22;100.00;148458.72;4945500;28;20240;-58
2023/10/07 07:15:36;;;;;;;12.83;4.73;;;;;;;9.32;100.00;148482.38;4949105;28;20299;-58
2023/10/07 07:18:08;;;;;;;10.10;4.60;;;;;;;9.45;100.00;148514.75;4947854;28;21150;-57
2023/10/07 07:23:20;;;;;;;10.70;4.63;;;;;;;9.53;100.00;148533.41;4948082;28;21369;-57
2023/10/07 07:26:06;;;;;;;11.73;4.83;;;;;;;9.64;100.00;148559.50;4967494;28;20228;-58
2023/10/07 07:28:34;;;;;;;10.53;4.80;;;;;;;9.71;100.00;148578.22;4950920;28;20317;-58
2023/10/07 07:31:02;;;;;;;10.57;4.82;;;;;;;9.86;100.00;148614.28;4946180;28;20446;-59
2023/10/07 07:33:34;;;;;;;11.67;4.57;;;;;;;10.01;100.00;148649.16;4945492;28;20246;-58
2023/10/07 07:36:07;;;;;;;9.03;4.20;;;;;;;10.18;100.00;148691.47;4940020;28;20236;-59
2023/10/07 07:38:43;;;;;;;12.70;4.57;;;;;;;10.38;100.00;148737.53;4951479;28;20732;-58
2023/10/07 07:41:26;;;;;;;10.90;4.83;;;;;;;10.53;100.00;148774.94;4948166;28;20242;-59
2023/10/07 07:43:58;;;;;;;14.17;4.50;;;;;;;10.66;100.00;148806.06;4946876;28;20224;-58
2023/10/07 07:46:30;;;;;;;11.33;3.77;;;;;;;10.96;100.00;148877.09;4947097;28;20242;-58
2023/10/07 07:49:05;;;;;;;11.03;3.87;;;;;;;11.21;100.00;148938.13;4952384;28;20239;-58
2023/10/07 07:51:37;;;;;;;8.43;4.00;;;;;;;11.47;100.00;149001.66;4949930;28;20245;-58
2023/10/07 07:54:06;;;;;;;7.03;3.90;;;;;;;11.72;100.00;149061.47;4947067;28;20240;-58
2023/10/07 07:56:34;;;;;;;9.43;4.50;;;;;;;11.94;100.00;149113.84;4952382;28;20660;-58
2023/10/07 07:59:02;;;;;;;12.80;4.50;;;;;;;12.16;100.00;149167.47;4949168;28;20229;-59
2023/10/07 08:01:29;;;;;;;10.40;4.43;;;;;;;12.42;100.00;149228.56;4951901;28;20312;-59
2023/10/07 08:04:00;;;;;;;13.50;6.43;;;;;;;12.75;95.35;149308.38;4941465;28;20318;-56
2023/10/07 08:06:27;;;;;;;19.10;7.17;;;;;;;12.60;94.78;149272.22;4947395;28;20290;-59
2023/10/07 08:08:54;;;;;;;14.60;6.93;;;;;;;12.61;95.22;149275.94;4946007;28;20688;-58
2023/10/07 08:11:21;;;;;;;13.80;7.30;;;;;;;12.46;94.64;149239.81;4943148;28;20378;-58
2023/10/07 08:13:49;;;;;;;16.87;6.50;;;;;;;12.88;94.57;149340.81;4945965;28;20219;-59
2023/10/07 08:16:18;;;;;;;15.07;6.63;;;;;;;12.96;95.74;149359.50;4947622;28;20326;-57
2023/10/07 08:18:46;;;;;;;15.57;6.53;;;;;;;13.05;94.28;149380.72;4947918;28;20334;-58
2023/10/07 08:21:14;;;;;;;12.90;6.60;;;;;;;13.29;94.87;149439.34;4941797;28;20245;-58
2023/10/07 08:23:43;;;;;;;14.93;7.37;;;;;;;13.37;92.33;149459.31;4942125;28;20239;-59
2023/10/07 08:26:12;;;;;;;13.87;6.40;;;;;;;13.72;91.26;149542.94;4942072;28;20287;-59
2023/10/07 08:28:44;;;;;;;12.07;6.60;;;;;;;14.19;89.92;149655.28;4953785;28;20241;-58
2023/10/07 08:31:15;;;;;;;13.30;6.90;;;;;;;14.55;87.86;149743.91;4945886;28;20248;-58
2023/10/07 08:33:42;;;;;;;13.93;6.40;;;;;;;14.82;84.80;149808.91;4948719;28;20577;-58
2023/10/07 08:36:09;;;;;;;12.13;6.70;;;;;;;15.16;84.28;149890.06;4953446;28;20228;-57
2023/10/07 08:38:43;;;;;;;12.47;6.57;;;;;;;15.25;84.11;149912.56;4951553;28;20716;-59
2023/10/07 08:41:16;;;;;;;13.40;5.90;;;;;;;15.32;81.66;149928.78;4948951;28;20239;-57
2023/10/07 08:43:44;;;;;;;12.93;6.30;;;;;;;15.50;80.95;149973.75;4945393;28;20232;-59
2023/10/07 08:46:15;;;;;;;13.90;6.27;;;;;;;15.69;81.14;150018.75;4949045;28;20239;-59
2023/10/07 08:48:49;;;;;;;13.90;6.30;;;;;;;15.85;79.33;150056.22;4948182;28;20244;-59
2023/10/07 08:51:21;;;;;;;11.37;6.67;;;;;;;15.70;80.62;150021.22;4944375;28;20237;-59
2023/10/07 08:53:48;;;;;;;16.27;7.30;;;;;;;15.19;83.80;149897.56;4947991;28;20239;-59
2023/10/07 08:56:17;;;;;;;15.37;6.90;;;;;;;15.32;83.62;149928.78;4946931;28;20418;-57
2023/10/07 08:58:44;;;;;;;15.50;7.40;;;;;;;15.17;84.90;149893.78;4943438;28;20304;-56
2023/10/07 09:01:18;;;;;;;12.40;6.13;;;;;;;15.38;84.91;149942.50;4948674;28;20242;-58
2023/10/07 09:03:47;;;;;;;14.87;7.00;;;;;;;15.48;84.89;149967.47;4945925;28;20238;-59
2023/10/07 09:06:14;;;;;;;11.53;6.80;;;;;;;15.54;84.52;149982.47;4944556;28;20233;-58
2023/10/07 09:08:43;;;;;;;12.87;6.73;;;;;;;15.57;82.66;149988.75;4946745;28;20464;-59
2023/10/07 09:11:12;;;;;;;13.40;7.03;;;;;;;15.55;82.86;149983.75;4946677;28;20241;-59
2023/10/07 09:13:39;;;;;;;13.50;7.53;;;;;;;15.19;84.08;149898.78;4944418;28;20211;-59
2023/10/07 09:16:07;;;;;;;16.83;7.10;;;;;;;15.11;86.33;149878.81;4944930;28;20241;-58
2023/10/07 09:18:39;;;;;;;13.17;7.07;;;;;;;14.94;87.84;149837.59;4951478;28;20257;-58
2023/10/07 09:21:09;;;;;;;12.83;6.63;;;;;;;15.01;89.05;149853.81;4941827;28;20285;-58
2023/10/07 09:23:42;;;;;;;14.20;6.83;;;;;;;15.01;88.09;149855.09;4944917;28;20219;-59
2023/10/07 09:26:16;;;;;;;12.50;6.83;;;;;;;14.96;87.42;149842.59;4944294;28;20238;-58
2023/10/07 09:28:46;;;;;;;14.10;7.17;;;;;;;15.06;87.47;149866.31;4945517;28;20227;-57
2023/10/07 09:31:15;;;;;;;16.47;7.67;;;;;;;15.19;86.73;149898.78;4941085;28;20324;-57
2023/10/07 09:33:45;;;;;;;12.57;6.80;;;;;;;15.26;86.86;149913.78;4947111;28;20233;-57
2023/10/07 09:36:33;;;;;;;15.57;7.47;;;;;;;15.25;84.86;149912.56;4943053;28;20746;-56
2023/10/07 09:42:26;;;;;;;12.20;6.53;;;;;;;15.45;82.00;149961.25;5075436;27;21081;-57
2023/10/07 09:44:55;;;;;;;12.93;6.70;;;;;;;15.67;81.69;150013.72;5064601;28;20657;-57
2023/10/07 09:47:22;;;;;;;12.43;5.90;;;;;;;15.94;81.08;150078.72;5057830;28;20673;-59
2023/10/07 09:49:57;;;;;;;12.20;5.53;;;;;;;16.11;79.57;150120.00;5070034;28;20224;-59
2023/10/07 09:52:29;;;;;;;11.87;6.43;;;;;;;16.36;78.68;150180.00;5070734;28;20220;-60
2023/10/07 09:55:40;;;;;;;14.43;6.23;;;;;;;16.56;78.21;150228.72;5072029;28;20252;-54
2023/10/07 09:58:29;;;;;;;13.53;6.00;;;;;;;16.60;77.40;150237.44;5039766;28;20663;-56
2023/10/07 10:01:29;;;;;;;15.60;6.23;;;;;;;16.82;76.63;150292.47;5077066;28;20235;-57
2023/10/07 10:04:14;;;;;;;15.10;6.20;;;;;;;16.75;76.43;150273.75;5070697;27;20233;-56
2023/10/07 10:07:00;;;;;;;12.20;5.73;;;;;;;16.97;75.30;150328.75;5058552;28;20236;-57
2023/10/07 10:09:42;;;;;;;10.73;4.90;;;;;;;16.96;76.26;150324.97;5059062;28;20234;-61
2023/10/07 10:12:18;;;;;;;12.47;5.50;;;;;;;17.05;76.92;150346.25;5076668;28;20241;-57
2023/10/07 10:18:35;;;;;;;13.07;5.77;;;;;;;17.61;70.67;150481.34;5073748;28;20614;-57
2023/10/07 10:21:04;;;;;;;13.80;5.10;;;;;;;17.88;70.30;150546.41;5078534;28;20317;-57
2023/10/07 10:23:33;;;;;;;10.80;4.43;;;;;;;18.23;70.36;150632.78;5078815;28;20230;-58
2023/10/07 10:26:13;;;;;;;13.00;5.00;;;;;;;18.58;65.74;150717.84;5076766;28;20312;-57
2023/10/07 10:28:41;;;;;;;8.47;4.77;;;;;;;18.84;62.89;150780.44;5080216;28;20294;-58
2023/10/07 10:31:19;;;;;;;7.70;4.30;;;;;;;18.98;61.91;150814.31;5076384;28;20313;-55
2023/10/07 10:33:49;;;;;;;11.07;5.00;;;;;;;18.85;61.45;150782.94;5078631;28;20252;-58
2023/10/07 10:36:21;;;;;;;11.83;5.10;;;;;;;18.86;60.79;150784.22;5057632;28;20220;-60
2023/10/07 10:38:48;;;;;;;10.07;4.27;;;;;;;19.07;61.60;150834.34;5066621;28;20239;-57
2023/10/07 10:41:15;;;;;;;11.97;4.50;;;;;;;18.80;60.85;150770.41;5077636;28;20238;-57
2023/10/07 10:43:42;;;;;;;10.50;4.20;;;;;;;19.05;59.38;150830.56;5080150;28;20224;-59
2023/10/07 10:46:09;;;;;;;10.20;4.83;;;;;;;18.80;59.93;150769.19;5075962;28;20224;-59
2023/10/07 10:48:37;;;;;;;13.33;5.03;;;;;;;19.22;56.94;150870.63;5071386;28;20287;-58
2023/10/07 10:51:06;;;;;;;8.23;4.17;;;;;;;19.27;56.77;150883.16;5074723;28;20324;-58
2023/10/07 10:53:33;;;;;;;8.73;4.53;;;;;;;19.64;57.27;150973.28;5067005;28;20234;-59
2023/10/07 10:56:00;;;;;;;9.97;5.00;;;;;;;19.55;57.76;150950.78;5064250;28;20226;-60
2023/10/07 10:58:26;;;;;;;11.97;4.47;;;;;;;19.72;56.31;150993.31;5066365;28;20226;-60
2023/10/07 11:00:54;;;;;;;9.47;4.20;;;;;;;20.12;54.46;151089.84;5067875;28;20245;-60
2023/10/07 11:03:21;;;;;;;8.40;4.33;;;;;;;19.90;54.41;151037.22;5052308;28;20235;-59
2023/10/07 11:05:49;;;;;;;11.03;4.27;;;;;;;20.15;52.03;151097.31;5046194;28;20234;-60
2023/10/07 11:08:22;;;;;;;8.90;4.30;;;;;;;20.37;53.29;151149.94;5042701;28;20233;-60
2023/10/07 11:10:51;;;;;;;8.80;4.30;;;;;;;20.41;50.32;151159.97;5061003;28;20220;-59
2023/10/07 11:13:17;;;;;;;9.40;4.23;;;;;;;20.36;51.72;151147.44;5050280;28;20232;-59
2023/10/07 11:15:58;;;;;;;8.70;4.50;;;;;;;20.20;52.55;151109.84;5056195;28;20579;-57
2023/10/07 11:18:27;;;;;;;11.53;3.73;;;;;;;19.85;52.91;151024.66;5041991;28;20721;-59
2023/10/07 11:20:54;;;;;;;7.50;3.73;;;;;;;20.12;54.35;151089.84;5044083;28;20347;-57
2023/10/07 11:24:06;;;;;;;10.00;4.00;;;;;;;20.47;49.82;151175.00;4931112;28;20730;-59
2023/10/07 11:26:39;;;;;;;7.23;3.40;;;;;;;21.01;48.73;151304.09;4902367;28;20223;-59
2023/10/07 11:29:29;;;;;;;;;;;;;;;;;;;;;
2023/10/07 11:32:33;;;;;;;6.20;2.97;;;;;;;20.33;47.67;151141.19;4926391;28;20345;-60
2023/10/07 11:35:05;;;;;;;7.10;3.23;;;;;;;20.52;48.70;151185.03;4971610;28;20713;-59
2023/10/07 11:37:53;;;;;;;6.10;3.40;;;;;;;20.23;48.98;151114.84;5035041;28;20294;-60
2023/10/07 11:40:27;;;;;;;8.87;3.07;;;;;;;20.67;50.18;151221.38;5037823;28;20718;-60
2023/10/07 11:42:56;;;;;;;5.17;2.93;;;;;;;21.06;49.37;151317.94;5045239;28;20316;-60
2023/10/07 11:45:26;;;;;;;9.03;4.03;;;;;;;21.33;46.76;151383.06;5022252;28;20223;-59
2023/10/07 11:47:56;;;;;;;7.03;3.30;;;;;;;21.28;46.54;151370.53;5019053;28;20233;-59
2023/10/07 11:50:27;;;;;;;6.57;3.07;;;;;;;21.16;46.91;151340.47;5059087;28;20305;-57
2023/10/07 11:52:53;;;;;;;8.00;3.23;;;;;;;21.28;47.89;151369.28;5060743;28;20233;-59